sensor_id;sensor_type;location;lat;lon;timestamp;temperature;humidity
19003;DHT22;9634;51.040;13.794;2022-12-18T00:04:46;-7.80;99.90
19003;DHT22;9634;51.040;13.794;2022-12-18T00:09:50;-7.50;99.90
19003;DHT22;9634;51.040;13.794;2022-12-18T00:14:52;-7.60;99.90
19003;DHT22;9634;51.040;13.794;2022-12-18T00:19:54;-7.60;99.90
19003;DHT22;9634;51.040;13.794;2022-12-18T00:24:58;-7.70;99.90
19003;DHT22;9634;51.040;13.794;2022-12-18T00:30:00;-7.60;99.90
19003;DHT22;9634;51.040;13.794;2022-12-18T00:35:03;-7.70;99.90
19003;DHT22;9634;51.040;13.794;2022-12-18T00:40:08;-8.00;99.90
19003;DHT22;9634;51.040;13.794;2022-12-18T00:45:11;-8.00;99.90
19003;DHT22;9634;51.040;13.794;2022-12-18T00:50:13;-8.20;99.90
19003;DHT22;9634;51.040;13.794;2022-12-18T00:55:17;-8.10;99.90
19003;DHT22;9634;51.040;13.794;2022-12-18T01:00:21;-8.00;99.90
19003;DHT22;9634;51.040;13.794;2022-12-18T01:05:24;-8.10;99.90
19003;DHT22;9634;51.040;13.794;2022-12-18T01:10:28;-8.10;99.90
19003;DHT22;9634;51.040;13.794;2022-12-18T01:15:32;-8.10;99.90
19003;DHT22;9634;51.040;13.794;2022-12-18T01:20:34;-8.00;99.90
19003;DHT22;9634;51.040;13.794;2022-12-18T01:25:38;-8.00;99.90
19003;DHT22;9634;51.040;13.794;2022-12-18T01:30:43;-8.10;99.90
19003;DHT22;9634;51.040;13.794;2022-12-18T01:35:47;-8.30;98.20
19003;DHT22;9634;51.040;13.794;2022-12-18T01:40:57;-8.40;99.90
19003;DHT22;9634;51.040;13.794;2022-12-18T01:45:59;-8.40;99.90
19003;DHT22;9634;51.040;13.794;2022-12-18T01:51:01;-8.40;99.90
19003;DHT22;9634;51.040;13.794;2022-12-18T01:56:07;-8.20;99.90
19003;DHT22;9634;51.040;13.794;2022-12-18T02:01:11;-8.20;99.90
19003;DHT22;9634;51.040;13.794;2022-12-18T02:06:19;-8.30;99.90
19003;DHT22;9634;51.040;13.794;2022-12-18T02:11:34;-8.40;99.90
19003;DHT22;9634;51.040;13.794;2022-12-18T02:16:44;-8.50;99.90
19003;DHT22;9634;51.040;13.794;2022-12-18T02:21:54;-8.60;97.40
19003;DHT22;9634;51.040;13.794;2022-12-18T02:27:01;-8.50;99.90
19003;DHT22;9634;51.040;13.794;2022-12-18T02:32:09;-8.20;99.90
19003;DHT22;9634;51.040;13.794;2022-12-18T02:37:15;-7.90;99.90
19003;DHT22;9634;51.040;13.794;2022-12-18T02:42:20;-7.80;99.90
19003;DHT22;9634;51.040;13.794;2022-12-18T02:47:26;-7.80;99.90
19003;DHT22;9634;51.040;13.794;2022-12-18T02:52:36;-7.80;99.90
19003;DHT22;9634;51.040;13.794;2022-12-18T02:57:47;-7.70;99.90
19003;DHT22;9634;51.040;13.794;2022-12-18T03:02:56;-7.50;99.90
19003;DHT22;9634;51.040;13.794;2022-12-18T03:08:06;-7.40;99.90
19003;DHT22;9634;51.040;13.794;2022-12-18T03:13:18;-7.30;99.90
19003;DHT22;9634;51.040;13.794;2022-12-18T03:18:25;-7.20;99.90
19003;DHT22;9634;51.040;13.794;2022-12-18T03:23:32;-7.10;95.90
19003;DHT22;9634;51.040;13.794;2022-12-18T03:28:39;-7.10;81.30
19003;DHT22;9634;51.040;13.794;2022-12-18T03:33:47;-7.20;80.40
19003;DHT22;9634;51.040;13.794;2022-12-18T03:38:50;-7.30;76.40
19003;DHT22;9634;51.040;13.794;2022-12-18T03:43:58;-7.40;81.90
19003;DHT22;9634;51.040;13.794;2022-12-18T03:49:09;-7.60;82.30
19003;DHT22;9634;51.040;13.794;2022-12-18T03:54:15;-7.70;87.00
19003;DHT22;9634;51.040;13.794;2022-12-18T03:59:29;-7.70;91.10
19003;DHT22;9634;51.040;13.794;2022-12-18T04:04:33;-8.00;71.20
19003;DHT22;9634;51.040;13.794;2022-12-18T04:09:39;-8.20;68.50
19003;DHT22;9634;51.040;13.794;2022-12-18T04:14:44;-8.50;65.50
19003;DHT22;9634;51.040;13.794;2022-12-18T04:19:47;-8.70;64.30
19003;DHT22;9634;51.040;13.794;2022-12-18T04:24:51;-8.90;68.10
19003;DHT22;9634;51.040;13.794;2022-12-18T04:30:05;-9.10;68.40
19003;DHT22;9634;51.040;13.794;2022-12-18T04:35:08;-9.10;82.20
19003;DHT22;9634;51.040;13.794;2022-12-18T04:40:13;-8.90;96.60
19003;DHT22;9634;51.040;13.794;2022-12-18T04:45:21;-8.70;97.90
19003;DHT22;9634;51.040;13.794;2022-12-18T04:50:23;-8.80;92.00
19003;DHT22;9634;51.040;13.794;2022-12-18T04:55:25;-9.10;80.20
19003;DHT22;9634;51.040;13.794;2022-12-18T05:00:29;-9.30;79.00
19003;DHT22;9634;51.040;13.794;2022-12-18T05:05:31;-9.30;84.50
19003;DHT22;9634;51.040;13.794;2022-12-18T05:10:36;-9.30;86.60
19003;DHT22;9634;51.040;13.794;2022-12-18T05:15:39;-9.20;92.10
19003;DHT22;9634;51.040;13.794;2022-12-18T05:20:42;-9.30;86.10
19003;DHT22;9634;51.040;13.794;2022-12-18T05:25:50;-9.50;70.50
19003;DHT22;9634;51.040;13.794;2022-12-18T05:30:58;-9.60;72.50
19003;DHT22;9634;51.040;13.794;2022-12-18T05:36:01;-9.70;70.30
19003;DHT22;9634;51.040;13.794;2022-12-18T05:41:04;-9.90;66.00
19003;DHT22;9634;51.040;13.794;2022-12-18T05:46:11;-9.90;71.80
19003;DHT22;9634;51.040;13.794;2022-12-18T05:51:15;-9.90;71.00
19003;DHT22;9634;51.040;13.794;2022-12-18T05:56:21;-10.00;73.10
19003;DHT22;9634;51.040;13.794;2022-12-18T06:01:26;-10.10;70.40
19003;DHT22;9634;51.040;13.794;2022-12-18T06:06:29;-10.00;76.60
19003;DHT22;9634;51.040;13.794;2022-12-18T06:11:31;-10.10;70.50
19003;DHT22;9634;51.040;13.794;2022-12-18T06:16:34;-10.20;68.50
19003;DHT22;9634;51.040;13.794;2022-12-18T06:21:37;-10.10;76.60
19003;DHT22;9634;51.040;13.794;2022-12-18T06:26:39;-10.00;85.20
19003;DHT22;9634;51.040;13.794;2022-12-18T06:31:42;-10.00;78.50
19003;DHT22;9634;51.040;13.794;2022-12-18T06:36:45;-10.00;75.50
19003;DHT22;9634;51.040;13.794;2022-12-18T06:41:47;-9.80;85.80
19003;DHT22;9634;51.040;13.794;2022-12-18T06:46:50;-9.90;76.10
19003;DHT22;9634;51.040;13.794;2022-12-18T06:51:53;-10.00;73.90
19003;DHT22;9634;51.040;13.794;2022-12-18T06:56:56;-10.10;73.90
19003;DHT22;9634;51.040;13.794;2022-12-18T07:01:59;-10.10;75.90
19003;DHT22;9634;51.040;13.794;2022-12-18T07:07:02;-10.10;77.00
19003;DHT22;9634;51.040;13.794;2022-12-18T07:12:04;-10.10;82.10
19003;DHT22;9634;51.040;13.794;2022-12-18T07:17:09;-10.00;84.50
19003;DHT22;9634;51.040;13.794;2022-12-18T07:22:11;-10.00;86.40
19003;DHT22;9634;51.040;13.794;2022-12-18T07:27:13;-9.70;97.30
19003;DHT22;9634;51.040;13.794;2022-12-18T07:32:17;-9.30;99.90
19003;DHT22;9634;51.040;13.794;2022-12-18T07:37:19;-8.80;99.90
19003;DHT22;9634;51.040;13.794;2022-12-18T07:42:21;-8.00;99.90
19003;DHT22;9634;51.040;13.794;2022-12-18T07:47:35;-7.20;99.90
19003;DHT22;9634;51.040;13.794;2022-12-18T07:52:37;-6.40;99.90
19003;DHT22;9634;51.040;13.794;2022-12-18T07:57:40;-5.60;99.90
19003;DHT22;9634;51.040;13.794;2022-12-18T08:02:43;-4.80;99.90
19003;DHT22;9634;51.040;13.794;2022-12-18T08:07:45;-4.00;99.90
19003;DHT22;9634;51.040;13.794;2022-12-18T08:12:49;-3.30;37.80
19003;DHT22;9634;51.040;13.794;2022-12-18T08:17:56;-2.70;1.00
19003;DHT22;9634;51.040;13.794;2022-12-18T08:22:58;-1.90;1.00
19003;DHT22;9634;51.040;13.794;2022-12-18T08:28:00;-1.00;99.90
19003;DHT22;9634;51.040;13.794;2022-12-18T08:33:04;-0.40;1.00
19003;DHT22;9634;51.040;13.794;2022-12-18T08:38:07;0.30;99.90
19003;DHT22;9634;51.040;13.794;2022-12-18T08:43:10;0.90;1.00
19003;DHT22;9634;51.040;13.794;2022-12-18T08:48:31;1.10;1.00
19003;DHT22;9634;51.040;13.794;2022-12-18T08:53:34;2.00;1.00
19003;DHT22;9634;51.040;13.794;2022-12-18T08:58:36;2.60;1.00
19003;DHT22;9634;51.040;13.794;2022-12-18T09:03:43;3.30;60.30
19003;DHT22;9634;51.040;13.794;2022-12-18T09:08:48;4.20;1.00
19003;DHT22;9634;51.040;13.794;2022-12-18T09:13:51;4.90;1.00
19003;DHT22;9634;51.040;13.794;2022-12-18T09:18:54;5.80;1.00
19003;DHT22;9634;51.040;13.794;2022-12-18T09:24:00;5.10;1.00
19003;DHT22;9634;51.040;13.794;2022-12-18T09:29:02;4.90;1.00
19003;DHT22;9634;51.040;13.794;2022-12-18T09:34:06;4.80;99.90
19003;DHT22;9634;51.040;13.794;2022-12-18T09:39:08;5.60;1.00
19003;DHT22;9634;51.040;13.794;2022-12-18T09:44:16;6.60;1.00
19003;DHT22;9634;51.040;13.794;2022-12-18T09:49:24;7.70;1.00
19003;DHT22;9634;51.040;13.794;2022-12-18T09:54:33;7.90;1.00
19003;DHT22;9634;51.040;13.794;2022-12-18T09:59:38;7.90;1.00
19003;DHT22;9634;51.040;13.794;2022-12-18T10:04:42;9.10;1.00
19003;DHT22;9634;51.040;13.794;2022-12-18T10:09:50;9.10;1.00
19003;DHT22;9634;51.040;13.794;2022-12-18T10:15:00;10.30;1.00
19003;DHT22;9634;51.040;13.794;2022-12-18T10:20:12;10.90;1.00
19003;DHT22;9634;51.040;13.794;2022-12-18T10:25:20;11.10;1.00
19003;DHT22;9634;51.040;13.794;2022-12-18T10:30:24;9.20;1.00
19003;DHT22;9634;51.040;13.794;2022-12-18T10:35:29;9.70;1.00
19003;DHT22;9634;51.040;13.794;2022-12-18T10:40:31;9.80;1.00
19003;DHT22;9634;51.040;13.794;2022-12-18T10:45:33;10.40;1.00
19003;DHT22;9634;51.040;13.794;2022-12-18T10:50:37;11.60;1.00
19003;DHT22;9634;51.040;13.794;2022-12-18T10:55:44;12.30;1.00
19003;DHT22;9634;51.040;13.794;2022-12-18T11:01:06;12.90;1.00
19003;DHT22;9634;51.040;13.794;2022-12-18T11:06:11;11.80;1.00
19003;DHT22;9634;51.040;13.794;2022-12-18T11:11:20;11.50;1.00
19003;DHT22;9634;51.040;13.794;2022-12-18T11:16:22;11.70;1.00
19003;DHT22;9634;51.040;13.794;2022-12-18T11:21:26;13.50;1.00
19003;DHT22;9634;51.040;13.794;2022-12-18T11:26:34;14.10;1.00
19003;DHT22;9634;51.040;13.794;2022-12-18T11:31:39;13.50;1.00
19003;DHT22;9634;51.040;13.794;2022-12-18T11:36:45;14.10;1.00
19003;DHT22;9634;51.040;13.794;2022-12-18T11:41:52;13.90;1.00
19003;DHT22;9634;51.040;13.794;2022-12-18T11:47:21;14.70;1.00
19003;DHT22;9634;51.040;13.794;2022-12-18T11:52:33;14.90;3.90
19003;DHT22;9634;51.040;13.794;2022-12-18T11:57:44;14.50;3.90
19003;DHT22;9634;51.040;13.794;2022-12-18T12:03:14;14.30;6.00
19003;DHT22;9634;51.040;13.794;2022-12-18T12:08:30;15.70;4.90
19003;DHT22;9634;51.040;13.794;2022-12-18T12:13:46;14.60;5.90
19003;DHT22;9634;51.040;13.794;2022-12-18T12:19:10;14.60;5.90
19003;DHT22;9634;51.040;13.794;2022-12-18T12:24:37;15.40;7.00
19003;DHT22;9634;51.040;13.794;2022-12-18T12:29:48;12.80;11.80
19003;DHT22;9634;51.040;13.794;2022-12-18T12:35:03;13.60;12.20
19003;DHT22;9634;51.040;13.794;2022-12-18T12:40:16;14.10;11.10
19003;DHT22;9634;51.040;13.794;2022-12-18T12:45:28;14.60;10.00
19003;DHT22;9634;51.040;13.794;2022-12-18T12:50:34;13.60;10.90
19003;DHT22;9634;51.040;13.794;2022-12-18T12:55:40;13.10;12.00
19003;DHT22;9634;51.040;13.794;2022-12-18T13:00:49;12.00;12.90
19003;DHT22;9634;51.040;13.794;2022-12-18T13:05:59;10.60;14.40
19003;DHT22;9634;51.040;13.794;2022-12-18T13:11:25;8.30;18.40
19003;DHT22;9634;51.040;13.794;2022-12-18T13:16:47;7.20;20.40
19003;DHT22;9634;51.040;13.794;2022-12-18T13:21:53;6.00;22.60
19003;DHT22;9634;51.040;13.794;2022-12-18T13:26:58;4.40;26.00
19003;DHT22;9634;51.040;13.794;2022-12-18T13:32:01;3.10;29.90
19003;DHT22;9634;51.040;13.794;2022-12-18T13:37:41;2.40;35.30
19003;DHT22;9634;51.040;13.794;2022-12-18T13:42:45;2.50;38.10
19003;DHT22;9634;51.040;13.794;2022-12-18T13:48:10;2.00;42.20
19003;DHT22;9634;51.040;13.794;2022-12-18T13:53:20;1.90;47.20
19003;DHT22;9634;51.040;13.794;2022-12-18T13:58:24;1.70;51.30
19003;DHT22;9634;51.040;13.794;2022-12-18T14:03:28;1.30;1.00
19003;DHT22;9634;51.040;13.794;2022-12-18T14:08:36;1.00;1.00
19003;DHT22;9634;51.040;13.794;2022-12-18T14:13:42;0.60;1.00
19003;DHT22;9634;51.040;13.794;2022-12-18T14:18:46;-0.10;1.00
19003;DHT22;9634;51.040;13.794;2022-12-18T14:24:04;-0.70;1.00
19003;DHT22;9634;51.040;13.794;2022-12-18T14:29:21;-1.20;1.00
19003;DHT22;9634;51.040;13.794;2022-12-18T14:34:26;-1.60;99.90
19003;DHT22;9634;51.040;13.794;2022-12-18T14:39:28;-2.00;1.00
19003;DHT22;9634;51.040;13.794;2022-12-18T14:44:32;-2.40;99.90
19003;DHT22;9634;51.040;13.794;2022-12-18T14:49:34;-2.60;99.90
19003;DHT22;9634;51.040;13.794;2022-12-18T14:54:37;-2.80;99.90
19003;DHT22;9634;51.040;13.794;2022-12-18T14:59:41;-3.00;1.00
19003;DHT22;9634;51.040;13.794;2022-12-18T15:04:44;-3.20;1.00
19003;DHT22;9634;51.040;13.794;2022-12-18T15:10:07;-3.30;1.00
19003;DHT22;9634;51.040;13.794;2022-12-18T15:15:47;-3.40;1.00
19003;DHT22;9634;51.040;13.794;2022-12-18T15:20:50;-3.60;1.00
19003;DHT22;9634;51.040;13.794;2022-12-18T15:25:57;-3.70;1.00
19003;DHT22;9634;51.040;13.794;2022-12-18T15:31:22;-3.80;1.00
19003;DHT22;9634;51.040;13.794;2022-12-18T15:36:28;-3.80;1.00
19003;DHT22;9634;51.040;13.794;2022-12-18T15:41:32;-3.80;1.00
19003;DHT22;9634;51.040;13.794;2022-12-18T15:46:36;-3.90;1.00
19003;DHT22;9634;51.040;13.794;2022-12-18T15:51:38;-3.90;1.00
19003;DHT22;9634;51.040;13.794;2022-12-18T15:56:41;-4.00;1.00
19003;DHT22;9634;51.040;13.794;2022-12-18T16:02:02;-4.10;1.00
19003;DHT22;9634;51.040;13.794;2022-12-18T16:07:04;-4.00;1.00
19003;DHT22;9634;51.040;13.794;2022-12-18T16:12:14;-4.10;1.00
19003;DHT22;9634;51.040;13.794;2022-12-18T16:17:18;-4.10;1.00
19003;DHT22;9634;51.040;13.794;2022-12-18T16:22:22;-4.00;1.00
19003;DHT22;9634;51.040;13.794;2022-12-18T16:27:27;-3.90;1.00
19003;DHT22;9634;51.040;13.794;2022-12-18T16:32:30;-3.90;1.00
19003;DHT22;9634;51.040;13.794;2022-12-18T16:37:33;-4.00;1.00
19003;DHT22;9634;51.040;13.794;2022-12-18T16:42:35;-3.90;1.00
19003;DHT22;9634;51.040;13.794;2022-12-18T16:47:39;-4.00;1.00
19003;DHT22;9634;51.040;13.794;2022-12-18T16:52:41;-3.90;1.00
19003;DHT22;9634;51.040;13.794;2022-12-18T16:57:44;-3.90;1.00
19003;DHT22;9634;51.040;13.794;2022-12-18T17:02:47;-3.90;1.00
19003;DHT22;9634;51.040;13.794;2022-12-18T17:07:49;-3.90;1.00
19003;DHT22;9634;51.040;13.794;2022-12-18T17:12:51;-3.90;1.00
19003;DHT22;9634;51.040;13.794;2022-12-18T17:17:55;-3.90;1.00
19003;DHT22;9634;51.040;13.794;2022-12-18T17:22:57;-3.80;1.00
19003;DHT22;9634;51.040;13.794;2022-12-18T17:28:00;-3.90;1.00
19003;DHT22;9634;51.040;13.794;2022-12-18T17:33:03;-3.80;1.00
19003;DHT22;9634;51.040;13.794;2022-12-18T17:38:05;-3.80;1.00
19003;DHT22;9634;51.040;13.794;2022-12-18T17:43:09;-3.80;1.00
19003;DHT22;9634;51.040;13.794;2022-12-18T17:48:13;-3.70;1.00
19003;DHT22;9634;51.040;13.794;2022-12-18T17:53:15;-3.70;1.00
19003;DHT22;9634;51.040;13.794;2022-12-18T17:58:18;-3.70;1.00
19003;DHT22;9634;51.040;13.794;2022-12-18T18:03:21;-3.70;1.00
19003;DHT22;9634;51.040;13.794;2022-12-18T18:08:24;-3.70;1.00
19003;DHT22;9634;51.040;13.794;2022-12-18T18:13:26;-3.60;1.00
19003;DHT22;9634;51.040;13.794;2022-12-18T18:18:47;-3.50;1.00
19003;DHT22;9634;51.040;13.794;2022-12-18T18:23:49;-3.50;1.00
19003;DHT22;9634;51.040;13.794;2022-12-18T18:28:53;-3.40;1.00
19003;DHT22;9634;51.040;13.794;2022-12-18T18:33:56;-3.40;1.00
19003;DHT22;9634;51.040;13.794;2022-12-18T18:38:59;-3.30;1.00
19003;DHT22;9634;51.040;13.794;2022-12-18T18:44:01;-3.20;1.00
19003;DHT22;9634;51.040;13.794;2022-12-18T18:49:05;-3.10;1.00
19003;DHT22;9634;51.040;13.794;2022-12-18T18:54:08;-3.10;1.00
19003;DHT22;9634;51.040;13.794;2022-12-18T18:59:10;-3.20;1.00
19003;DHT22;9634;51.040;13.794;2022-12-18T19:04:14;-3.10;1.00
19003;DHT22;9634;51.040;13.794;2022-12-18T19:09:16;-3.10;1.00
19003;DHT22;9634;51.040;13.794;2022-12-18T19:14:18;-3.10;1.00
19003;DHT22;9634;51.040;13.794;2022-12-18T19:19:25;-3.10;1.00
19003;DHT22;9634;51.040;13.794;2022-12-18T19:24:28;-3.10;1.00
19003;DHT22;9634;51.040;13.794;2022-12-18T19:29:30;-3.00;1.00
19003;DHT22;9634;51.040;13.794;2022-12-18T19:34:34;-3.10;1.00
19003;DHT22;9634;51.040;13.794;2022-12-18T19:39:36;-3.10;1.00
19003;DHT22;9634;51.040;13.794;2022-12-18T19:44:38;-3.10;1.00
19003;DHT22;9634;51.040;13.794;2022-12-18T19:49:42;-3.00;99.90
19003;DHT22;9634;51.040;13.794;2022-12-18T19:54:44;-3.00;99.90
19003;DHT22;9634;51.040;13.794;2022-12-18T19:59:47;-3.00;99.90
19003;DHT22;9634;51.040;13.794;2022-12-18T20:04:50;-2.90;99.90
19003;DHT22;9634;51.040;13.794;2022-12-18T20:09:53;-2.90;94.70
19003;DHT22;9634;51.040;13.794;2022-12-18T20:14:55;-2.90;6.00
19003;DHT22;9634;51.040;13.794;2022-12-18T20:19:58;-2.90;1.00
19003;DHT22;9634;51.040;13.794;2022-12-18T20:25:01;-2.90;47.70
19003;DHT22;9634;51.040;13.794;2022-12-18T20:30:04;-2.90;1.00
19003;DHT22;9634;51.040;13.794;2022-12-18T20:35:08;-2.90;1.00
19003;DHT22;9634;51.040;13.794;2022-12-18T20:40:10;-2.90;1.00
19003;DHT22;9634;51.040;13.794;2022-12-18T20:45:12;-2.90;1.00
19003;DHT22;9634;51.040;13.794;2022-12-18T20:50:16;-2.80;1.00
19003;DHT22;9634;51.040;13.794;2022-12-18T20:55:19;-2.70;1.00
19003;DHT22;9634;51.040;13.794;2022-12-18T21:00:21;-2.70;1.00
19003;DHT22;9634;51.040;13.794;2022-12-18T21:05:25;-2.60;1.00
19003;DHT22;9634;51.040;13.794;2022-12-18T21:10:27;-2.60;1.00
19003;DHT22;9634;51.040;13.794;2022-12-18T21:15:29;-2.50;99.90
19003;DHT22;9634;51.040;13.794;2022-12-18T21:20:33;-2.60;99.90
19003;DHT22;9634;51.040;13.794;2022-12-18T21:25:35;-2.60;1.00
19003;DHT22;9634;51.040;13.794;2022-12-18T21:30:38;-2.70;1.00
19003;DHT22;9634;51.040;13.794;2022-12-18T21:35:41;-2.60;1.00
19003;DHT22;9634;51.040;13.794;2022-12-18T21:40:43;-2.60;1.00
19003;DHT22;9634;51.040;13.794;2022-12-18T21:45:46;-2.60;1.00
19003;DHT22;9634;51.040;13.794;2022-12-18T21:50:49;-2.60;1.00
19003;DHT22;9634;51.040;13.794;2022-12-18T21:55:56;-2.60;1.00
19003;DHT22;9634;51.040;13.794;2022-12-18T22:00:58;-2.70;1.00
19003;DHT22;9634;51.040;13.794;2022-12-18T22:06:02;-2.80;1.00
19003;DHT22;9634;51.040;13.794;2022-12-18T22:11:04;-2.80;1.00
19003;DHT22;9634;51.040;13.794;2022-12-18T22:16:07;-2.80;1.00
19003;DHT22;9634;51.040;13.794;2022-12-18T22:21:22;-2.90;50.10
19003;DHT22;9634;51.040;13.794;2022-12-18T22:26:25;-2.90;35.70
19003;DHT22;9634;51.040;13.794;2022-12-18T22:31:28;-2.90;52.00
19003;DHT22;9634;51.040;13.794;2022-12-18T22:36:35;-2.90;77.00
19003;DHT22;9634;51.040;13.794;2022-12-18T22:41:38;-3.00;99.10
19003;DHT22;9634;51.040;13.794;2022-12-18T22:46:42;-3.00;51.50
19003;DHT22;9634;51.040;13.794;2022-12-18T22:51:47;-3.00;33.70
19003;DHT22;9634;51.040;13.794;2022-12-18T22:56:49;-3.00;47.70
19003;DHT22;9634;51.040;13.794;2022-12-18T23:01:52;-3.00;1.00
19003;DHT22;9634;51.040;13.794;2022-12-18T23:06:55;-3.00;1.00
19003;DHT22;9634;51.040;13.794;2022-12-18T23:11:57;-3.00;1.00
19003;DHT22;9634;51.040;13.794;2022-12-18T23:17:00;-3.00;1.00
19003;DHT22;9634;51.040;13.794;2022-12-18T23:22:03;-3.00;1.00
19003;DHT22;9634;51.040;13.794;2022-12-18T23:27:05;-3.00;1.00
19003;DHT22;9634;51.040;13.794;2022-12-18T23:32:08;-3.10;1.00
19003;DHT22;9634;51.040;13.794;2022-12-18T23:37:11;-3.10;1.00
19003;DHT22;9634;51.040;13.794;2022-12-18T23:42:13;-3.10;1.00
19003;DHT22;9634;51.040;13.794;2022-12-18T23:47:15;-3.10;1.00
19003;DHT22;9634;51.040;13.794;2022-12-18T23:52:19;-3.10;1.00
19003;DHT22;9634;51.040;13.794;2022-12-18T23:57:21;-3.10;1.00
